Time;durP1;ratioP1;P1;durP2;ratioP2;P2;SDS_P1;SDS_P2;PMS_P1;PMS_P2;Temp;Humidity;BMP_temperature;BMP_pressure;BME280_temperature;BME280_humidity;BME280_pressure;Samples;Min_cycle;Max_cycle;Signal;HPM_P1;HPM_P2
2022/07/28 00:00:07;;;;;;;2.83;1.40;;;10.60;99.90;;;;;;4892539;29;20502;-77
2022/07/28 00:02:33;;;;;;;3.50;1.30;;;10.60;99.90;;;;;;4895159;29;20048;-77
2022/07/28 00:04:58;;;;;;;6.33;1.70;;;10.50;99.90;;;;;;4918508;29;20415;-77
2022/07/28 00:07:25;;;;;;;3.93;1.63;;;10.50;99.90;;;;;;4896099;29;20108;-77
2022/07/28 00:09:51;;;;;;;3.87;1.57;;;10.50;99.90;;;;;;4894794;29;20060;-77
2022/07/28 00:12:17;;;;;;;1.97;1.20;;;10.50;99.90;;;;;;4906206;29;20063;-77
2022/07/28 00:14:43;;;;;;;2.67;1.50;;;10.50;99.90;;;;;;4889032;29;20044;-77
2022/07/28 00:17:09;;;;;;;3.37;1.40;;;10.50;99.90;;;;;;4896143;29;20044;-77
2022/07/28 00:19:35;;;;;;;5.80;2.07;;;10.50;99.90;;;;;;4902319;29;20047;-77
2022/07/28 00:22:01;;;;;;;7.97;2.07;;;10.60;99.90;;;;;;4887143;29;20128;-77
2022/07/28 00:24:30;;;;;;;3.00;1.73;;;10.50;99.90;;;;;;4899975;29;20044;-77
2022/07/28 00:26:56;;;;;;;2.67;1.53;;;10.40;99.90;;;;;;4900202;29;20055;-77
2022/07/28 00:29:22;;;;;;;3.73;2.07;;;10.40;99.90;;;;;;4899581;29;20498;-77
2022/07/28 00:31:48;;;;;;;2.13;1.40;;;10.40;99.90;;;;;;4885555;29;20044;-77
2022/07/28 00:34:13;;;;;;;3.80;1.50;;;10.40;99.90;;;;;;4884055;29;20131;-77
2022/07/28 00:36:39;;;;;;;2.83;1.70;;;10.40;99.90;;;;;;4900342;29;20414;-77
2022/07/28 00:39:05;;;;;;;3.17;1.60;;;10.40;99.90;;;;;;4872034;29;20104;-77
2022/07/28 00:41:32;;;;;;;4.43;1.67;;;10.40;99.90;;;;;;4895857;29;20051;-77
2022/07/28 00:43:58;;;;;;;3.93;1.50;;;10.40;99.90;;;;;;4895137;29;20510;-77
2022/07/28 00:46:24;;;;;;;4.97;1.53;;;10.40;99.90;;;;;;4897225;29;20108;-77
2022/07/28 00:48:52;;;;;;;4.07;1.60;;;10.40;99.90;;;;;;4895974;29;20048;-77
2022/07/28 00:51:20;;;;;;;4.33;1.50;;;10.30;99.90;;;;;;4897548;29;20100;-77
2022/07/28 00:53:46;;;;;;;2.93;1.30;;;10.30;99.90;;;;;;4892478;29;20052;-77
2022/07/28 00:56:13;;;;;;;2.53;1.30;;;10.20;99.90;;;;;;4894583;29;20036;-77
2022/07/28 00:58:40;;;;;;;2.40;1.40;;;10.30;99.90;;;;;;4892527;29;20045;-77
2022/07/28 01:01:08;;;;;;;4.23;1.53;;;10.30;99.90;;;;;;4896386;29;20064;-77
2022/07/28 01:03:37;;;;;;;2.63;1.57;;;10.20;99.90;;;;;;4894879;29;20052;-77
2022/07/28 01:06:14;;;;;;;3.43;1.60;;;10.20;99.90;;;;;;4881971;29;20076;-77
2022/07/28 01:08:51;;;;;;;4.10;1.77;;;10.20;99.90;;;;;;4905142;29;20283;-77
2022/07/28 01:11:24;;;;;;;2.60;1.50;;;10.20;99.90;;;;;;4887937;29;20044;-77
2022/07/28 01:13:58;;;;;;;3.80;1.70;;;10.20;99.90;;;;;;4877804;29;20044;-77
2022/07/28 01:16:26;;;;;;;4.38;1.65;;;10.10;99.90;;;;;;4890053;29;20517;-77
2022/07/28 01:18:56;;;;;;;3.33;1.73;;;10.10;99.90;;;;;;4874028;29;20051;-76
2022/07/28 01:21:27;;;;;;;2.47;1.20;;;10.20;99.90;;;;;;4903269;29;20053;-76
2022/07/28 01:24:10;;;;;;;1.73;1.30;;;10.10;99.90;;;;;;4908549;29;20048;-76
2022/07/28 01:26:49;;;;;;;4.47;1.30;;;10.10;99.90;;;;;;4904462;29;20052;-76
2022/07/28 01:29:35;;;;;;;2.13;1.10;;;10.00;99.90;;;;;;4898957;29;20502;-76
2022/07/28 01:32:05;;;;;;;1.93;1.30;;;10.00;99.90;;;;;;4893063;29;20455;-76
2022/07/28 01:34:39;;;;;;;1.97;1.20;;;10.00;99.90;;;;;;4902428;29;20142;-76
2022/07/28 01:37:10;;;;;;;3.07;1.60;;;9.90;99.90;;;;;;4891357;29;20451;-77
2022/07/28 01:39:39;;;;;;;4.00;1.43;;;9.90;99.90;;;;;;4903269;29;20063;-76
2022/07/28 01:42:07;;;;;;;5.57;2.00;;;9.90;99.90;;;;;;4898403;29;20056;-76
2022/07/28 01:44:39;;;;;;;3.83;1.60;;;9.90;99.90;;;;;;4888670;29;20048;-76
2022/07/28 01:47:08;;;;;;;2.67;1.77;;;9.90;99.90;;;;;;4904655;29;20082;-76
2022/07/28 01:49:36;;;;;;;4.90;1.70;;;9.80;99.90;;;;;;4890355;29;20068;-76
2022/07/28 01:52:07;;;;;;;4.23;1.90;;;9.80;99.90;;;;;;4884760;29;20178;-76
2022/07/28 01:54:34;;;;;;;3.33;1.70;;;9.70;99.90;;;;;;4904132;29;20513;-76
2022/07/28 01:57:01;;;;;;;5.40;1.60;;;9.70;99.90;;;;;;4888242;29;20050;-76
2022/07/28 01:59:29;;;;;;;2.67;1.53;;;9.70;99.90;;;;;;4886912;29;20047;-76
2022/07/28 02:01:57;;;;;;;2.77;1.60;;;9.70;99.90;;;;;;4884359;29;20044;-76
2022/07/28 02:04:26;;;;;;;4.93;1.37;;;9.70;99.90;;;;;;4895916;29;20674;-76
2022/07/28 02:06:54;;;;;;;1.90;1.40;;;9.70;99.90;;;;;;4889222;29;20052;-76
2022/07/28 02:09:22;;;;;;;2.07;1.40;;;9.70;99.90;;;;;;4902348;29;20552;-76
2022/07/28 02:11:52;;;;;;;4.20;1.40;;;9.70;99.90;;;;;;4889788;29;20050;-76
2022/07/28 02:14:20;;;;;;;2.13;1.30;;;9.70;99.90;;;;;;4895697;29;20040;-76
2022/07/28 02:16:50;;;;;;;3.80;1.60;;;9.70;99.90;;;;;;4887195;29;20116;-76
2022/07/28 02:19:18;;;;;;;2.83;1.60;;;9.80;99.90;;;;;;4890257;29;20421;-76
2022/07/28 02:21:48;;;;;;;4.27;1.77;;;9.70;99.90;;;;;;4900736;29;20052;-76
2022/07/28 02:24:18;;;;;;;4.23;1.70;;;9.80;99.90;;;;;;4898512;29;20131;-76
2022/07/28 02:26:48;;;;;;;5.47;1.97;;;9.70;99.90;;;;;;4892275;29;20061;-76
2022/07/28 02:29:17;;;;;;;2.93;1.77;;;9.70;99.90;;;;;;4886778;29;20052;-76
2022/07/28 02:32:00;;;;;;;2.60;1.60;;;9.70;99.90;;;;;;4897864;29;20071;-77
2022/07/28 02:34:27;;;;;;;4.53;1.70;;;9.70;99.90;;;;;;4895907;29;21147;-76
2022/07/28 02:36:57;;;;;;;4.73;1.73;;;9.70;99.90;;;;;;4898956;29;20573;-77
2022/07/28 02:39:29;;;;;;;4.60;1.70;;;9.70;99.90;;;;;;4892671;29;20044;-76
2022/07/28 02:42:03;;;;;;;3.77;1.70;;;9.70;99.90;;;;;;4895477;29;20135;-76
2022/07/28 02:44:34;;;;;;;3.35;1.70;;;9.70;99.90;;;;;;4886115;29;20055;-76
2022/07/28 02:47:05;;;;;;;4.57;1.53;;;9.70;99.90;;;;;;4902057;29;20507;-76
2022/07/28 02:49:33;;;;;;;2.33;1.30;;;9.70;99.90;;;;;;4899029;29;20042;-76
2022/07/28 02:52:02;;;;;;;4.23;1.57;;;9.70;99.90;;;;;;4887531;29;20048;-76
2022/07/28 02:54:30;;;;;;;3.17;1.40;;;9.60;99.90;;;;;;4889740;29;20055;-77
2022/07/28 02:56:57;;;;;;;5.33;1.77;;;9.60;99.90;;;;;;4891267;29;20083;-76
2022/07/28 02:59:25;;;;;;;4.67;1.77;;;9.60;99.90;;;;;;4896300;29;20127;-76
2022/07/28 03:01:51;;;;;;;2.80;1.20;;;9.50;99.90;;;;;;4889137;29;20417;-76
2022/07/28 03:04:55;;;;;;;4.27;1.60;;;9.50;99.90;;;;;;4890256;29;20055;-76
2022/07/28 03:07:05;;;;;;;4.73;1.43;;;9.50;99.90;;;;;;4903551;29;20097;-76
2022/07/28 03:09:36;;;;;;;2.20;1.30;;;9.50;99.90;;;;;;4907126;29;20048;-76
2022/07/28 03:12:02;;;;;;;2.23;1.33;;;9.40;99.90;;;;;;4893638;29;20040;-76
2022/07/28 03:14:28;;;;;;;1.67;1.20;;;9.40;99.90;;;;;;4901084;29;20139;-76
2022/07/28 03:16:54;;;;;;;2.80;1.27;;;9.40;99.90;;;;;;4892333;29;20040;-76
2022/07/28 03:19:19;;;;;;;2.07;1.20;;;9.40;99.90;;;;;;4895861;29;20051;-76
2022/07/28 03:21:48;;;;;;;2.10;1.10;;;9.40;99.90;;;;;;4903802;29;20070;-77
2022/07/28 03:24:16;;;;;;;3.53;1.30;;;9.40;99.90;;;;;;4904076;29;20823;-76
2022/07/28 03:26:50;;;;;;;2.47;1.47;;;9.40;99.90;;;;;;4894351;29;20044;-76
2022/07/28 03:29:16;;;;;;;2.67;1.30;;;9.40;99.90;;;;;;4907185;29;20227;-76
2022/07/28 03:31:46;;;;;;;2.97;1.30;;;9.40;99.90;;;;;;4895958;29;20048;-76
2022/07/28 03:34:13;;;;;;;2.30;1.10;;;9.40;99.90;;;;;;4898195;29;20107;-76
2022/07/28 03:36:43;;;;;;;4.60;1.40;;;9.40;99.90;;;;;;4897805;29;20040;-76
2022/07/28 03:39:10;;;;;;;3.43;1.37;;;9.40;99.90;;;;;;4892306;29;20048;-76
2022/07/28 03:41:39;;;;;;;3.00;1.20;;;9.30;99.90;;;;;;4882256;29;20056;-76
2022/07/28 03:44:07;;;;;;;4.20;1.40;;;9.30;99.90;;;;;;4882665;29;20056;-76
2022/07/28 03:46:33;;;;;;;2.93;1.50;;;9.30;99.90;;;;;;4882550;29;20125;-76
2022/07/28 03:48:59;;;;;;;2.50;1.40;;;9.20;99.90;;;;;;4893292;29;20036;-76
2022/07/28 03:51:27;;;;;;;3.07;1.40;;;9.20;99.90;;;;;;4886632;29;20507;-76
2022/07/28 03:53:52;;;;;;;4.93;1.57;;;9.20;99.90;;;;;;4888093;29;20053;-76
2022/07/28 03:56:18;;;;;;;3.23;1.60;;;9.20;99.90;;;;;;4903460;29;20055;-76
2022/07/28 03:58:45;;;;;;;2.40;1.40;;;9.10;99.90;;;;;;4885102;29;20077;-76
2022/07/28 04:01:11;;;;;;;3.10;1.80;;;9.20;99.90;;;;;;4898006;29;20593;-76
2022/07/28 04:03:37;;;;;;;3.20;1.60;;;9.20;99.90;;;;;;4905031;29;20127;-76
2022/07/28 04:06:02;;;;;;;5.50;1.87;;;9.20;99.90;;;;;;4886448;29;20589;-76
2022/07/28 04:08:28;;;;;;;4.33;1.67;;;9.20;99.90;;;;;;4896708;29;20528;-76
2022/07/28 04:10:54;;;;;;;3.80;1.37;;;9.20;99.90;;;;;;4900186;29;20147;-76
2022/07/28 04:13:20;;;;;;;2.57;1.60;;;9.20;99.90;;;;;;4886675;29;20199;-76
2022/07/28 04:15:47;;;;;;;5.63;1.50;;;9.20;99.90;;;;;;4890188;29;20053;-75
2022/07/28 04:18:12;;;;;;;2.93;1.37;;;9.30;99.90;;;;;;4883869;29;20143;-76
2022/07/28 04:20:38;;;;;;;1.23;0.93;;;9.30;99.90;;;;;;4897454;29;20126;-76
2022/07/28 04:23:04;;;;;;;1.83;1.23;;;9.30;99.90;;;;;;4883606;29;20067;-76
2022/07/28 04:25:29;;;;;;;2.43;1.40;;;9.30;99.90;;;;;;4895852;29;20049;-77
2022/07/28 04:27:55;;;;;;;3.67;1.40;;;9.30;99.90;;;;;;4895023;29;20462;-76
2022/07/28 04:30:26;;;;;;;1.30;1.00;;;9.30;99.90;;;;;;4893579;29;20494;-76
2022/07/28 04:32:55;;;;;;;2.27;1.23;;;9.30;99.90;;;;;;4905261;29;20059;-76
2022/07/28 04:35:26;;;;;;;1.93;1.10;;;9.20;99.90;;;;;;4890690;29;20048;-76
2022/07/28 04:37:54;;;;;;;2.63;1.37;;;9.20;99.90;;;;;;4885447;29;20044;-76
2022/07/28 04:40:21;;;;;;;3.77;1.40;;;9.20;99.90;;;;;;4875173;29;20056;-76
2022/07/28 04:42:47;;;;;;;2.90;1.20;;;9.20;99.90;;;;;;4897833;29;20052;-76
2022/07/28 04:45:12;;;;;;;2.43;1.30;;;9.20;99.90;;;;;;4900754;29;20056;-76
2022/07/28 04:47:39;;;;;;;2.07;1.30;;;9.20;99.90;;;;;;4903008;29;20108;-76
2022/07/28 04:50:08;;;;;;;3.67;1.50;;;9.20;99.90;;;;;;4889694;29;20052;-76
2022/07/28 04:52:33;;;;;;;4.47;1.50;;;9.20;99.90;;;;;;4903509;29;20052;-76
2022/07/28 04:54:59;;;;;;;3.83;1.37;;;9.20;99.90;;;;;;4895930;29;20044;-76
2022/07/28 04:57:28;;;;;;;2.13;1.10;;;9.20;99.90;;;;;;4901030;29;20446;-76
2022/07/28 04:59:54;;;;;;;1.50;1.20;;;9.20;99.90;;;;;;4901643;29;20549;-76
2022/07/28 05:02:20;;;;;;;1.87;1.20;;;9.20;99.90;;;;;;4887246;29;20040;-76
2022/07/28 05:04:46;;;;;;;1.63;1.40;;;9.10;99.90;;;;;;4887604;29;20549;-76
2022/07/28 05:07:13;;;;;;;3.97;1.60;;;9.10;99.90;;;;;;4889364;29;20052;-76
2022/07/28 05:09:39;;;;;;;2.27;1.30;;;9.20;99.90;;;;;;4899666;29;20129;-76
2022/07/28 05:12:05;;;;;;;3.80;1.53;;;9.20;99.90;;;;;;4907979;29;20060;-76
2022/07/28 05:14:31;;;;;;;2.00;1.40;;;9.30;99.90;;;;;;4894508;29;20044;-76
2022/07/28 05:16:57;;;;;;;2.43;1.67;;;9.30;99.90;;;;;;4903198;29;20081;-76
2022/07/28 05:19:22;;;;;;;3.27;1.63;;;9.40;99.90;;;;;;4902106;29;20052;-76
2022/07/28 05:21:48;;;;;;;3.40;1.67;;;9.50;99.90;;;;;;4908703;29;20051;-76
2022/07/28 05:24:15;;;;;;;2.47;1.70;;;9.60;99.90;;;;;;4902024;29;20072;-76
2022/07/28 05:26:41;;;;;;;5.00;1.70;;;9.70;99.90;;;;;;4911420;29;20040;-76
2022/07/28 05:29:07;;;;;;;4.90;1.57;;;9.80;99.90;;;;;;4901955;29;20434;-76
2022/07/28 05:31:33;;;;;;;3.27;1.50;;;9.90;99.90;;;;;;4900145;29;20044;-76
2022/07/28 05:33:59;;;;;;;2.87;1.90;;;10.00;99.90;;;;;;4892037;29;20048;-76
2022/07/28 05:36:25;;;;;;;2.87;1.70;;;10.10;99.90;;;;;;4893093;29;20044;-77
2022/07/28 05:38:51;;;;;;;6.47;1.87;;;10.20;99.90;;;;;;4895974;29;20048;-76
2022/07/28 05:41:18;;;;;;;7.40;1.70;;;10.30;99.90;;;;;;4890120;29;20060;-77
2022/07/28 05:43:43;;;;;;;2.63;1.80;;;10.40;99.90;;;;;;4897235;29;20100;-76
2022/07/28 05:46:09;;;;;;;5.30;2.30;;;10.50;99.90;;;;;;4900847;29;20044;-76
2022/07/28 05:48:35;;;;;;;3.13;1.77;;;10.60;99.90;;;;;;4903014;29;20046;-77
2022/07/28 05:51:01;;;;;;;4.73;1.80;;;10.70;99.90;;;;;;4891754;29;20512;-76
2022/07/28 05:53:26;;;;;;;6.50;1.90;;;10.80;99.90;;;;;;4898881;29;20505;-77
2022/07/28 05:55:52;;;;;;;6.63;2.03;;;10.90;99.90;;;;;;4899858;29;20083;-77
2022/07/28 05:58:21;;;;;;;4.83;2.07;;;11.00;99.90;;;;;;4900304;29;20053;-77
2022/07/28 06:00:47;;;;;;;4.10;2.10;;;11.20;99.90;;;;;;4898012;29;20063;-77
2022/07/28 06:03:13;;;;;;;3.93;2.20;;;11.40;99.90;;;;;;4896640;29;20119;-76
2022/07/28 06:05:39;;;;;;;5.00;2.40;;;11.70;99.90;;;;;;4899995;29;20136;-76
2022/07/28 06:08:05;;;;;;;4.90;2.30;;;12.10;99.90;;;;;;4903550;29;20059;-76
2022/07/28 06:11:16;;;;;;;8.60;2.27;;;12.40;99.90;;;;;;4889086;29;20048;-76
2022/07/28 06:13:18;;;;;;;8.67;2.20;;;12.60;99.90;;;;;;4873782;29;20048;-77
2022/07/28 06:15:46;;;;;;;8.30;2.37;;;12.90;99.90;;;;;;4895798;29;20052;-76
2022/07/28 06:18:12;;;;;;;5.57;1.70;;;13.10;99.90;;;;;;4899803;29;20048;-77
2022/07/28 06:20:38;;;;;;;3.43;2.33;;;13.20;99.90;;;;;;4919415;29;20422;-76
2022/07/28 06:23:04;;;;;;;6.87;1.80;;;13.40;99.90;;;;;;4897022;29;20088;-77
2022/07/28 06:25:30;;;;;;;4.90;1.83;;;13.50;99.90;;;;;;4883556;29;20135;-77
2022/07/28 06:27:57;;;;;;;5.33;1.90;;;13.70;99.90;;;;;;4899761;29;20048;-77
2022/07/28 06:30:23;;;;;;;4.50;1.60;;;13.90;99.90;;;;;;4884927;29;20044;-77
2022/07/28 06:32:50;;;;;;;3.27;1.47;;;14.10;99.90;;;;;;4891890;29;20044;-77
2022/07/28 06:35:17;;;;;;;3.10;1.70;;;14.30;99.90;;;;;;4885515;29;20758;-78
2022/07/28 06:37:44;;;;;;;4.83;1.53;;;14.40;99.90;;;;;;4890596;29;20519;-77
2022/07/28 06:40:11;;;;;;;5.67;1.30;;;14.60;99.90;;;;;;4898204;29;20484;-77
2022/07/28 06:42:37;;;;;;;7.00;1.30;;;14.90;99.90;;;;;;4893761;29;20047;-77
2022/07/28 06:45:03;;;;;;;5.57;1.03;;;15.00;99.90;;;;;;4890268;29;20116;-77
2022/07/28 06:47:29;;;;;;;4.83;1.10;;;15.20;99.90;;;;;;4883049;29;20530;-76
2022/07/28 06:49:56;;;;;;;9.23;1.60;;;15.40;99.90;;;;;;4896601;29;20052;-76
2022/07/28 06:52:22;;;;;;;5.40;1.20;;;15.60;99.90;;;;;;4883098;29;20092;-76
2022/07/28 06:54:50;;;;;;;6.47;1.47;;;15.80;99.90;;;;;;4900558;29;20068;-76
2022/07/28 06:57:16;;;;;;;3.03;1.03;;;16.00;99.90;;;;;;4883383;29;20307;-77
2022/07/28 06:59:42;;;;;;;4.17;1.17;;;16.20;99.90;;;;;;4901119;29;20058;-78
2022/07/28 07:02:08;;;;;;;3.30;1.07;;;16.30;99.90;;;;;;4883497;29;20498;-78
2022/07/28 07:04:34;;;;;;;4.30;1.10;;;16.40;99.90;;;;;;4898292;29;20040;-76
2022/07/28 07:07:01;;;;;;;3.63;1.00;;;16.60;99.90;;;;;;4897916;29;20916;-76
2022/07/28 07:09:26;;;;;;;3.73;1.13;;;16.70;99.90;;;;;;4913721;29;20059;-77
2022/07/28 07:11:52;;;;;;;3.30;1.10;;;16.80;99.90;;;;;;4913528;29;20092;-78
2022/07/28 07:28:02;;;;;;;4.40;1.23;;;17.10;99.90;;;;;;5090252;27;20408;-77
2022/07/28 07:30:28;;;;;;;2.37;0.90;;;17.40;99.90;;;;;;5049404;28;20139;-77
2022/07/28 07:32:54;;;;;;;3.77;1.00;;;17.50;99.90;;;;;;5054720;28;20048;-79
2022/07/28 07:35:20;;;;;;;4.87;1.00;;;17.50;99.90;;;;;;5076903;28;20036;-77
2022/07/28 07:37:45;;;;;;;7.37;1.10;;;17.50;99.90;;;;;;5070019;28;20056;-78
2022/07/28 07:40:11;;;;;;;1.87;0.80;;;17.60;99.90;;;;;;5065679;28;20032;-78
2022/07/28 07:42:37;;;;;;;3.63;1.07;;;17.50;99.90;;;;;;5064893;28;20495;-78
2022/07/28 07:45:05;;;;;;;5.13;1.17;;;17.60;99.90;;;;;;5074787;28;20040;-78
2022/07/28 07:47:31;;;;;;;3.33;0.77;;;17.60;99.90;;;;;;5063997;28;20043;-78
2022/07/28 07:49:57;;;;;;;4.40;0.70;;;17.60;99.90;;;;;;5069552;28;20047;-78
2022/07/28 07:52:22;;;;;;;4.50;0.90;;;17.60;99.90;;;;;;5066334;28;20102;-78
2022/07/28 07:54:48;;;;;;;4.47;0.90;;;17.60;99.90;;;;;;5082022;28;20513;-78
2022/07/28 07:57:14;;;;;;;3.63;0.97;;;17.70;99.90;;;;;;5062244;28;20573;-79
2022/07/28 07:59:40;;;;;;;4.20;1.10;;;17.70;99.90;;;;;;5062955;28;20121;-78
2022/07/28 08:02:07;;;;;;;3.73;0.87;;;17.80;99.90;;;;;;5043913;28;20552;-79
2022/07/28 08:04:33;;;;;;;2.50;0.80;;;17.80;99.90;;;;;;5063293;28;20044;-78
2022/07/28 08:06:59;;;;;;;4.87;1.00;;;17.80;99.90;;;;;;5061401;28;20409;-79
2022/07/28 08:09:25;;;;;;;6.30;1.00;;;17.90;99.90;;;;;;5053552;28;20048;-78
2022/07/28 08:11:51;;;;;;;1.83;0.90;;;17.80;99.90;;;;;;5043581;28;20147;-77
2022/07/28 08:14:17;;;;;;;2.77;0.97;;;17.90;99.90;;;;;;5058982;28;20100;-79
2022/07/28 08:16:42;;;;;;;3.10;0.70;;;17.80;99.90;;;;;;5063037;28;20127;-78
2022/07/28 08:19:09;;;;;;;3.57;0.90;;;17.80;99.90;;;;;;5079083;28;20036;-77
2022/07/28 08:21:35;;;;;;;3.17;0.90;;;17.90;99.90;;;;;;5076956;28;20048;-76
2022/07/28 08:24:02;;;;;;;3.83;0.83;;;17.90;99.90;;;;;;5077698;28;20048;-75
2022/07/28 08:26:28;;;;;;;3.13;0.80;;;18.00;99.90;;;;;;5058469;28;20036;-77
2022/07/28 08:28:54;;;;;;;4.13;0.90;;;18.00;99.90;;;;;;5045003;28;20137;-76
2022/07/28 08:31:22;;;;;;;6.17;0.70;;;18.00;99.90;;;;;;5061783;28;20043;-76
2022/07/28 08:33:48;;;;;;;2.67;0.80;;;18.10;99.90;;;;;;5060403;28;20037;-77
2022/07/28 08:36:15;;;;;;;3.37;0.77;;;18.30;99.90;;;;;;5046800;28;20036;-77
2022/07/28 08:38:41;;;;;;;5.53;1.10;;;18.50;99.90;;;;;;5063828;28;20123;-78
2022/07/28 08:41:18;;;;;;;3.93;1.30;;;18.60;99.30;;;;;;5043710;28;20132;-77
2022/07/28 08:43:48;;;;;;;2.33;0.80;;;18.60;97.70;;;;;;5061822;28;20115;-77
2022/07/28 08:46:14;;;;;;;5.07;1.10;;;18.70;97.90;;;;;;5047049;28;20136;-77
2022/07/28 08:48:42;;;;;;;1.80;0.70;;;18.80;97.20;;;;;;5029605;28;20502;-77
2022/07/28 08:51:10;;;;;;;2.40;1.00;;;18.70;97.40;;;;;;5029570;28;20114;-77
2022/07/28 08:53:39;;;;;;;3.63;1.10;;;18.70;97.10;;;;;;5059537;28;20040;-77
2022/07/28 08:56:06;;;;;;;3.73;0.93;;;18.70;97.30;;;;;;5045058;28;20466;-77
2022/07/28 08:58:34;;;;;;;2.13;0.70;;;18.60;97.40;;;;;;5039297;28;20043;-78
2022/07/28 09:01:00;;;;;;;4.70;1.03;;;18.60;97.80;;;;;;5047288;28;20052;-77
2022/07/28 09:03:27;;;;;;;3.07;1.10;;;18.60;98.50;;;;;;5063989;28;20048;-78
2022/07/28 09:05:53;;;;;;;6.37;1.30;;;18.50;99.90;;;;;;5061950;28;20040;-79
2022/07/28 09:08:19;;;;;;;7.07;1.30;;;18.40;99.90;;;;;;5043630;28;20097;-79
2022/07/28 09:10:47;;;;;;;6.20;1.50;;;18.40;99.90;;;;;;5062047;28;20376;-78
2022/07/28 09:13:14;;;;;;;6.20;1.10;;;18.40;99.90;;;;;;5025392;28;20515;-79
2022/07/28 09:15:40;;;;;;;2.33;1.00;;;18.40;99.90;;;;;;5059239;28;20044;-78
2022/07/28 09:18:06;;;;;;;4.90;1.20;;;18.30;99.90;;;;;;5060299;28;20037;-77
2022/07/28 09:20:34;;;;;;;7.37;1.53;;;18.30;99.90;;;;;;5021725;28;20109;-78
2022/07/28 09:23:01;;;;;;;5.30;1.30;;;18.40;99.90;;;;;;5030904;28;20068;-78
2022/07/28 09:25:28;;;;;;;5.80;1.30;;;18.40;99.90;;;;;;5040537;28;20052;-78
2022/07/28 09:28:03;;;;;;;5.47;1.40;;;18.40;99.90;;;;;;5046954;28;20054;-77
2022/07/28 09:30:31;;;;;;;6.37;1.20;;;18.40;99.90;;;;;;5047385;28;20502;-79
2022/07/28 09:33:16;;;;;;;6.03;1.27;;;18.50;99.90;;;;;;5028607;28;20064;-79
2022/07/28 09:35:43;;;;;;;6.33;1.50;;;18.60;99.90;;;;;;5045158;28;20486;-77
2022/07/28 09:38:09;;;;;;;5.10;1.33;;;18.70;99.90;;;;;;5045228;28;20596;-78
2022/07/28 09:40:35;;;;;;;5.30;1.30;;;18.90;99.90;;;;;;5044071;28;20040;-78
2022/07/28 09:43:03;;;;;;;3.80;1.10;;;19.10;99.90;;;;;;5032578;28;20254;-79
2022/07/28 09:45:29;;;;;;;6.00;1.60;;;19.20;99.90;;;;;;5063550;28;20040;-77
2022/07/28 09:48:09;;;;;;;4.83;1.40;;;19.30;99.90;;;;;;5046393;28;20490;-78
2022/07/28 09:50:35;;;;;;;7.07;1.40;;;19.30;99.90;;;;;;5061149;28;20510;-78
2022/07/28 09:53:19;;;;;;;5.30;1.30;;;19.30;99.90;;;;;;5044738;28;20033;-79
2022/07/28 09:55:53;;;;;;;7.38;1.30;;;19.20;99.90;;;;;;5060914;28;20467;-79
2022/07/28 09:58:21;;;;;;;4.50;1.20;;;19.20;99.90;;;;;;5059153;28;20505;-77
2022/07/28 10:00:46;;;;;;;5.23;1.50;;;19.20;99.90;;;;;;5046871;28;20102;-77
2022/07/28 10:03:23;;;;;;;5.27;1.13;;;19.30;99.90;;;;;;5055789;28;20449;-77
2022/07/28 10:05:49;;;;;;;4.90;1.30;;;19.50;99.90;;;;;;5029997;28;20036;-78
2022/07/28 10:08:15;;;;;;;4.97;1.30;;;19.80;99.90;;;;;;5062925;28;20147;-77
2022/07/28 10:10:41;;;;;;;3.80;1.10;;;20.30;98.70;;;;;;5048102;28;20043;-77
2022/07/28 10:13:07;;;;;;;2.90;0.97;;;20.90;98.50;;;;;;5025531;28;20033;-77
2022/07/28 10:18:18;;;;;;;3.53;1.00;;;22.20;96.70;;;;;;5042279;28;20419;-77
2022/07/28 10:20:44;;;;;;;2.47;0.83;;;22.40;96.20;;;;;;5058732;28;20040;-77
2022/07/28 10:23:13;;;;;;;4.63;1.00;;;22.60;95.00;;;;;;5046806;28;20052;-77
2022/07/28 10:25:39;;;;;;;2.77;1.20;;;22.40;94.20;;;;;;5046274;28;20162;-78
2022/07/28 10:28:07;;;;;;;3.00;1.00;;;22.30;94.00;;;;;;5047282;28;20036;-78
2022/07/28 10:30:38;;;;;;;2.10;0.80;;;22.20;94.40;;;;;;5061930;28;20048;-79
2022/07/28 10:33:12;;;;;;;3.30;0.80;;;22.30;93.70;;;;;;5063191;28;20097;-77
2022/07/28 10:35:39;;;;;;;3.23;1.10;;;22.60;92.80;;;;;;5062930;28;20523;-78
2022/07/28 10:38:10;;;;;;;4.43;0.93;;;23.00;93.00;;;;;;5064340;28;20048;-77
2022/07/28 10:40:40;;;;;;;2.40;0.70;;;23.40;93.00;;;;;;5062951;28;20047;-77
2022/07/28 10:43:07;;;;;;;4.50;0.87;;;23.50;91.80;;;;;;5043978;28;20156;-79
2022/07/28 10:45:36;;;;;;;3.17;0.90;;;23.30;91.10;;;;;;5063151;28;20064;-77
2022/07/28 10:48:04;;;;;;;3.77;0.90;;;23.00;90.50;;;;;;5057317;28;20455;-77
2022/07/28 10:50:30;;;;;;;4.53;1.10;;;23.20;90.90;;;;;;5041017;28;20188;-79
2022/07/28 10:52:57;;;;;;;4.47;0.93;;;23.50;91.10;;;;;;5057366;28;20075;-76
2022/07/28 10:55:36;;;;;;;2.83;0.88;;;23.70;90.70;;;;;;5055854;28;20047;-77
2022/07/28 10:58:10;;;;;;;4.30;0.90;;;23.60;88.60;;;;;;5060953;28;20407;-77
2022/07/28 11:00:45;;;;;;;4.37;0.90;;;23.30;89.10;;;;;;5058045;28;20075;-78
2022/07/28 11:03:34;;;;;;;4.88;1.20;;;23.40;86.20;;;;;;5035503;28;20040;-78
2022/07/28 11:06:23;;;;;;;3.42;1.00;;;23.40;86.80;;;;;;5044475;28;20040;-78
2022/07/28 11:08:51;;;;;;;3.03;1.00;;;23.00;86.90;;;;;;5043702;28;20171;-79
2022/07/28 11:11:41;;;;;;;5.35;1.20;;;22.90;89.00;;;;;;5063903;28;20060;-80
2022/07/28 11:14:32;;;;;;;4.15;1.20;;;23.10;88.60;;;;;;5047293;28;20056;-82
2022/07/28 11:17:14;;;;;;;3.65;0.88;;;23.40;87.80;;;;;;5080133;28;20119;-80
2022/07/28 11:19:54;;;;;;;3.30;0.75;;;23.50;86.20;;;;;;5046074;28;20056;-78
2022/07/28 11:22:23;;;;;;;2.58;0.90;;;23.30;86.70;;;;;;5060834;28;20094;-78
2022/07/28 11:25:14;;;;;;;3.50;0.80;;;23.10;87.80;;;;;;5020475;28;20048;-79
2022/07/28 11:28:00;;;;;;;3.58;1.10;;;22.90;88.60;;;;;;5061694;28;20401;-78
2022/07/28 11:30:52;;;;;;;3.30;0.90;;;22.90;88.80;;;;;;5027747;28;20169;-79
2022/07/28 11:33:19;;;;;;;6.95;1.20;;;22.90;88.40;;;;;;5027246;28;20660;-81
2022/07/28 11:35:54;;;;;;;2.33;1.00;;;22.90;87.90;;;;;;5059718;28;20495;-78
2022/07/28 11:38:22;;;;;;;5.20;1.20;;;22.80;87.50;;;;;;5044070;28;20045;-76
2022/07/28 11:40:50;;;;;;;3.30;1.10;;;22.80;87.10;;;;;;5043148;28;20075;-76
2022/07/28 11:43:29;;;;;;;2.88;1.20;;;22.60;88.20;;;;;;5044637;28;20290;-78
2022/07/28 11:46:24;;;;;;;2.15;0.88;;;22.50;90.00;;;;;;5041390;28;20032;-79
2022/07/28 11:49:19;;;;;;;2.20;0.98;;;22.30;90.40;;;;;;5041553;28;20082;-79
2022/07/28 11:52:14;;;;;;;2.80;1.02;;;22.30;90.60;;;;;;5043794;28;20064;-82
2022/07/28 11:54:42;;;;;;;4.70;0.90;;;22.50;90.30;;;;;;5047692;28;20101;-80
2022/07/28 11:57:08;;;;;;;4.30;1.10;;;22.80;89.90;;;;;;5023026;28;20768;-81
2022/07/28 11:59:46;;;;;;;2.83;1.20;;;23.10;87.60;;;;;;5044605;28;20052;-80
2022/07/28 12:02:16;;;;;;;3.53;1.30;;;23.40;86.90;;;;;;5039452;28;20406;-79
2022/07/28 12:04:44;;;;;;;2.22;0.90;;;23.70;87.50;;;;;;5065771;28;20040;-80
2022/07/28 12:07:11;;;;;;;1.98;0.98;;;24.00;86.30;;;;;;5069022;28;20053;-81
2022/07/28 12:09:38;;;;;;;3.22;0.90;;;23.90;85.10;;;;;;5052581;28;20047;-81
2022/07/28 12:12:06;;;;;;;4.22;1.17;;;23.60;84.30;;;;;;5064511;28;20045;-80
2022/07/28 12:14:38;;;;;;;3.45;1.10;;;23.40;84.30;;;;;;5061797;28;20040;-80
2022/07/28 12:17:04;;;;;;;5.10;1.15;;;23.20;85.50;;;;;;5046127;28;20048;-77
2022/07/28 12:19:30;;;;;;;2.30;1.02;;;23.30;86.30;;;;;;5047320;28;20084;-77
2022/07/28 12:21:57;;;;;;;2.58;1.00;;;23.30;86.50;;;;;;5062524;28;20044;-78
2022/07/28 12:24:27;;;;;;;2.67;1.10;;;23.50;86.00;;;;;;5061240;28;20526;-78
2022/07/28 12:26:54;;;;;;;3.25;1.05;;;23.40;85.30;;;;;;5060329;28;20043;-79
2022/07/28 12:29:20;;;;;;;2.63;0.90;;;23.40;85.30;;;;;;5061631;28;20044;-78
2022/07/28 12:31:54;;;;;;;3.00;0.90;;;23.60;83.20;;;;;;5027999;28;20052;-79
2022/07/28 12:34:21;;;;;;;3.95;1.00;;;24.10;83.30;;;;;;5047769;28;20040;-79
2022/07/28 12:36:47;;;;;;;4.18;0.88;;;24.30;82.50;;;;;;5063544;28;20032;-78
2022/07/28 12:39:21;;;;;;;2.67;1.00;;;24.00;81.20;;;;;;5063763;28;20051;-77
2022/07/28 12:41:47;;;;;;;4.10;0.82;;;23.80;81.60;;;;;;5045321;28;20047;-80
2022/07/28 12:44:13;;;;;;;3.97;0.90;;;24.00;80.70;;;;;;5029330;28;20040;-79
2022/07/28 12:46:44;;;;;;;4.35;0.85;;;24.00;81.50;;;;;;5050002;28;20081;-79
2022/07/28 12:49:20;;;;;;;3.35;1.10;;;24.20;80.00;;;;;;5047264;28;20048;-79
2022/07/28 12:51:46;;;;;;;2.20;0.88;;;24.50;80.70;;;;;;5059066;28;20051;-81
2022/07/28 12:54:13;;;;;;;4.00;1.15;;;25.00;80.60;;;;;;5067043;28;20131;-80
2022/07/28 12:56:44;;;;;;;5.32;1.23;;;25.30;80.60;;;;;;5046044;28;20036;-79
2022/07/28 12:59:12;;;;;;;2.42;0.98;;;25.20;79.30;;;;;;5048705;28;20461;-79
2022/07/28 13:01:49;;;;;;;4.20;0.93;;;25.20;78.10;;;;;;5047020;28;20051;-76
2022/07/28 13:04:15;;;;;;;2.38;0.95;;;24.80;76.80;;;;;;5062750;28;20047;-76
2022/07/28 13:06:41;;;;;;;1.65;0.80;;;24.70;78.20;;;;;;5047679;28;20051;-77
2022/07/28 13:09:07;;;;;;;2.33;0.88;;;24.90;77.00;;;;;;5063191;28;20127;-78
2022/07/28 13:11:34;;;;;;;3.58;1.23;;;25.30;77.50;;;;;;5046680;28;20044;-79
2022/07/28 13:14:01;;;;;;;2.70;0.90;;;25.70;75.00;;;;;;5047682;28;20094;-78